Atlanta, GA

2:13 AM EST on February 07, 2016 (GMT -0500)
Chastain | | Change Station
CLOSE
Current Station
Personal Weather Station
Location: Atlanta, GA
Elevation: 905 ft
Nearby Weather Stations

Elev 905 ft 33.87 °N, 84.40 °W | Updated 37 seconds ago

Partly Cloudy
Partly Cloudy
30.9 °F
Feels Like 31 °F
N
0.0
Wind Variable Wind from East
Gusts 0.0 mph

Today
High -- | Low -- °F
--% Chance of Precip.
Yesterday
High -- | Low -- °F
Precip. -- in
Pressure 30.19 in
Visibility 10.0 miles
Clouds Clear
Windchill 31 °F
Dew Point 23 °F
Humidity 72%
Rainfall 0.00 in
Snow Depth Not available.
7:30 AM 6:13 PM
Waning Crescent, 2% visible
METAR KPDK 070653Z AUTO 02003KT 10SM CLR 01/M06 A3016 RMK AO2 SLP224 T00061056
Pressure 30.19 in
Visibility 10.0 miles
Clouds Clear
Windchill 31 °F
Dew Point 23 °F
Humidity 72%
Rainfall 0.00 in
Snow Depth Not available.
7:30 AM 6:13 PM
Waning Crescent, 2% visible
METAR KPDK 070653Z AUTO 02003KT 10SM CLR 01/M06 A3016 RMK AO2 SLP224 T00061056

10-Day Weather Forecast

Almanac

Astronomy

Feb. 07, 2016 Rise Set
Actual Time
Civil Twilight
Nautical Twilight
Astronomical Twilight
Moon
Length of Visible Light
Length of Day
Tomorrow will be .
, % of the Moon is Illuminated

Today's Extremes

State Highs State Lows

Community

WunderPhotos

Upload Photos

1,891,174 photos uploaded!

WunderBlog® & News

Nearby

Air Quality

  Air Quality AQ Index Pollutant
Not available.

Snow Depth

Station Depth Elevation

Earthquake Activity

City Distance Mag. Time & Date
Minimum magnitude displayed is 2.5.

Coastal Water Temperatures

Place Temperature

Stations

Nearby Weather Stations

Station Location Temp. Windchill Dew Point Humidity Wind Precip. Elev Updated Type
                   

Watches & Warnings

There are currently no watches in effect.